Time;durP1;ratioP1;P1;durP2;ratioP2;P2;SDS_P1;SDS_P2;PMS_P1;PMS_P2;Temp;Humidity;BMP_temperature;BMP_pressure;BME280_temperature;BME280_humidity;BME280_pressure;Samples;Min_cycle;Max_cycle;Signal;HPM_P1;HPM_P2
2022/02/12 00:02:11;;;;;;;86.95;51.35;;;5.20;99.90;;;;;;4993925;28;20054;-71
2022/02/12 00:04:38;;;;;;;104.75;59.08;;;5.40;99.90;;;;;;5012153;28;20030;-73
2022/02/12 00:07:06;;;;;;;95.32;57.85;;;5.50;99.90;;;;;;5012307;28;20050;-73
2022/02/12 00:09:33;;;;;;;104.22;59.60;;;5.70;99.90;;;;;;5012031;28;20574;-72
2022/02/12 00:12:00;;;;;;;106.63;60.25;;;5.90;99.90;;;;;;5012095;28;20386;-73
2022/02/12 00:14:27;;;;;;;108.88;60.00;;;5.70;99.90;;;;;;5012072;28;20034;-74
2022/02/12 00:16:56;;;;;;;103.57;60.58;;;5.70;99.90;;;;;;5011991;28;20088;-73
2022/02/12 00:19:23;;;;;;;99.78;60.20;;;5.50;99.90;;;;;;5019649;28;20467;-72
2022/02/12 00:21:50;;;;;;;115.03;65.03;;;5.50;99.90;;;;;;5031415;28;20049;-72
2022/02/12 00:24:17;;;;;;;126.68;68.20;;;5.50;99.90;;;;;;5031436;28;20033;-71
2022/02/12 00:26:45;;;;;;;127.28;67.45;;;5.40;99.90;;;;;;5031437;28;20041;-72
2022/02/12 00:29:12;;;;;;;114.18;61.63;;;5.40;99.90;;;;;;5031376;28;20037;-70
2022/02/12 00:31:39;;;;;;;106.25;58.88;;;5.20;99.90;;;;;;5031619;28;20352;-71
2022/02/12 00:34:06;;;;;;;106.85;60.33;;;5.30;99.90;;;;;;5031282;28;20044;-71
2022/02/12 00:36:33;;;;;;;100.65;58.63;;;5.40;99.90;;;;;;5031409;28;20446;-70
2022/02/12 00:39:03;;;;;;;105.57;58.20;;;5.30;99.90;;;;;;5031201;28;20041;-70
2022/02/12 00:41:31;;;;;;;105.78;61.33;;;5.10;99.90;;;;;;5031357;28;20049;-71
2022/02/12 00:43:59;;;;;;;113.40;63.33;;;5.10;99.90;;;;;;5031179;28;20052;-73
2022/02/12 00:46:27;;;;;;;113.43;62.28;;;5.00;99.90;;;;;;5031280;28;20092;-75
2022/02/12 00:48:54;;;;;;;115.18;63.58;;;5.30;99.90;;;;;;5031109;28;20033;-75
2022/02/12 00:51:21;;;;;;;103.55;61.60;;;5.40;99.90;;;;;;5031083;28;20390;-74
2022/02/12 00:53:49;;;;;;;112.43;62.40;;;5.40;99.90;;;;;;5013630;28;20382;-74
2022/02/12 00:56:16;;;;;;;103.05;60.65;;;5.40;99.90;;;;;;5013693;28;20068;-73
2022/02/12 00:58:43;;;;;;;112.50;59.60;;;5.50;99.90;;;;;;5031201;28;20387;-73
2022/02/12 01:01:10;;;;;;;103.63;56.88;;;5.40;99.90;;;;;;5030845;28;20044;-70
2022/02/12 01:03:38;;;;;;;88.15;52.10;;;5.50;99.90;;;;;;5030995;28;20367;-72
2022/02/12 01:06:05;;;;;;;86.28;50.40;;;5.30;99.90;;;;;;5031571;28;20541;-73
2022/02/12 01:08:32;;;;;;;81.55;47.30;;;5.30;99.90;;;;;;5030883;28;20063;-73
2022/02/12 01:11:00;;;;;;;81.25;49.17;;;5.10;99.90;;;;;;5030750;28;20033;-73
2022/02/12 01:13:27;;;;;;;93.50;49.55;;;5.10;99.90;;;;;;5031206;28;20398;-75
2022/02/12 01:15:54;;;;;;;77.72;46.90;;;5.10;99.90;;;;;;5030817;28;20048;-73
2022/02/12 01:18:21;;;;;;;85.05;49.92;;;5.10;99.90;;;;;;5031335;28;20037;-74
2022/02/12 01:20:49;;;;;;;90.97;51.17;;;4.80;99.90;;;;;;5013341;28;20038;-73
2022/02/12 01:23:16;;;;;;;80.28;47.60;;;4.70;99.90;;;;;;5011171;28;20111;-72
2022/02/12 01:25:48;;;;;;;80.53;48.80;;;4.60;99.90;;;;;;5011145;28;20375;-71
2022/02/12 01:28:18;;;;;;;73.88;42.60;;;4.70;99.90;;;;;;5011249;28;20038;-71
2022/02/12 01:30:46;;;;;;;71.97;43.15;;;4.70;99.90;;;;;;5010882;28;20041;-72
2022/02/12 01:33:14;;;;;;;73.10;41.63;;;4.80;99.90;;;;;;5011358;28;20041;-71
2022/02/12 01:35:42;;;;;;;67.38;41.05;;;4.70;99.90;;;;;;5010971;28;20044;-71
2022/02/12 01:38:09;;;;;;;64.28;37.88;;;4.80;99.90;;;;;;5011546;28;20044;-72
2022/02/12 01:40:36;;;;;;;65.57;37.47;;;4.50;99.90;;;;;;5014736;28;20046;-71
2022/02/12 01:43:07;;;;;;;61.35;37.25;;;4.20;99.90;;;;;;5015313;28;20045;-71
2022/02/12 01:45:35;;;;;;;64.88;38.70;;;4.40;99.90;;;;;;5014833;28;20096;-70
2022/02/12 01:48:02;;;;;;;52.28;33.47;;;4.30;99.90;;;;;;5015118;28;20038;-72
2022/02/12 01:50:30;;;;;;;246.30;91.65;;;4.20;99.90;;;;;;5013374;28;20034;-72
2022/02/12 01:52:57;;;;;;;50.70;31.55;;;4.10;99.90;;;;;;5015069;28;20069;-72
2022/02/12 01:55:24;;;;;;;46.55;27.83;;;3.80;99.90;;;;;;5014642;28;20037;-72
2022/02/12 01:57:52;;;;;;;283.30;100.10;;;4.00;99.90;;;;;;5014920;28;20041;-72
2022/02/12 02:00:19;;;;;;;54.65;32.42;;;4.20;99.90;;;;;;5014368;28;20395;-70
2022/02/12 02:02:48;;;;;;;49.20;28.65;;;4.50;99.90;;;;;;5014792;28;20041;-73
2022/02/12 02:05:17;;;;;;;206.05;74.05;;;4.50;99.90;;;;;;5014474;28;20375;-72
2022/02/12 02:07:44;;;;;;;307.63;98.63;;;4.10;99.90;;;;;;5014776;28;20038;-72
2022/02/12 02:10:15;;;;;;;62.30;40.38;;;3.80;99.90;;;;;;5014017;28;20026;-71
2022/02/12 02:12:42;;;;;;;;;;;4.10;99.90;;;;;;5015128;28;20045;-73
2022/02/12 02:15:10;;;;;;;122.22;79.63;;;4.30;99.90;;;;;;5014346;28;19917;-73
2022/02/12 02:17:37;;;;;;;306.63;98.80;;;4.20;99.90;;;;;;5014203;28;20046;-73
2022/02/12 02:20:09;;;;;;;223.80;100.32;;;4.10;99.90;;;;;;5024114;28;20477;-73
2022/02/12 02:22:57;;;;;;;262.37;84.23;;;4.00;99.90;;;;;;5033995;28;20045;-74
2022/02/12 02:25:25;;;;;;;72.85;42.53;;;3.90;99.90;;;;;;5033509;28;20052;-72
2022/02/12 02:27:53;;;;;;;72.15;43.78;;;4.10;99.90;;;;;;5034013;28;20378;-73
2022/02/12 02:30:22;;;;;;;75.38;43.28;;;4.00;99.90;;;;;;5033596;28;20036;-73
2022/02/12 02:32:49;;;;;;;73.25;42.90;;;4.10;99.90;;;;;;5033857;28;20033;-73
2022/02/12 02:35:18;;;;;;;63.00;38.28;;;4.20;99.90;;;;;;5033895;28;20045;-72
2022/02/12 02:37:47;;;;;;;62.05;37.38;;;4.00;99.90;;;;;;5033732;28;20498;-72
2022/02/12 02:40:19;;;;;;;62.40;38.25;;;4.00;99.90;;;;;;5033330;28;20041;-73
2022/02/12 02:42:48;;;;;;;54.33;35.53;;;4.40;99.90;;;;;;5034022;28;20048;-73
2022/02/12 02:45:16;;;;;;;63.25;36.30;;;4.50;99.90;;;;;;5033293;28;20038;-73
2022/02/12 02:47:44;;;;;;;60.05;32.35;;;4.60;99.90;;;;;;5033805;28;20034;-73
2022/02/12 02:56:02;;;;;;;63.75;37.72;;;4.80;99.90;;;;;;5032836;28;20088;-72
2022/02/12 02:58:36;;;;;;;75.47;39.45;;;4.90;99.90;;;;;;5033408;28;20068;-74
2022/02/12 03:01:11;;;;;;;75.00;42.47;;;4.80;99.90;;;;;;5033118;28;20037;-72
2022/02/12 03:03:40;;;;;;;68.10;40.88;;;4.40;99.90;;;;;;5033482;28;20056;-73
2022/02/12 03:06:08;;;;;;;82.20;42.75;;;4.30;99.90;;;;;;5033474;28;20037;-72
2022/02/12 03:08:36;;;;;;;78.80;42.30;;;4.10;99.90;;;;;;5033267;28;20041;-73
2022/02/12 03:11:04;;;;;;;71.82;44.28;;;4.10;99.90;;;;;;5032984;28;20041;-70
2022/02/12 03:13:32;;;;;;;69.53;42.60;;;3.80;99.90;;;;;;5033302;28;20044;-73
2022/02/12 03:16:00;;;;;;;71.82;42.42;;;3.60;99.90;;;;;;5032669;28;20041;-73
2022/02/12 03:18:27;;;;;;;72.10;42.60;;;3.90;99.90;;;;;;5033151;28;20391;-73
2022/02/12 03:20:54;;;;;;;76.82;40.72;;;3.80;99.90;;;;;;5018175;28;20038;-72
2022/02/12 03:23:21;;;;;;;62.95;38.65;;;3.50;99.90;;;;;;5012913;28;20054;-74
2022/02/12 03:25:49;;;;;;;72.97;39.85;;;3.50;99.90;;;;;;5012873;28;20030;-73
2022/02/12 03:28:16;;;;;;;62.65;36.47;;;3.60;99.90;;;;;;5013227;28;20048;-71
2022/02/12 03:30:48;;;;;;;45.42;28.60;;;3.70;99.90;;;;;;5012597;28;20161;-72
2022/02/12 03:33:17;;;;;;;40.55;25.58;;;3.70;99.90;;;;;;5013264;28;20439;-72
2022/02/12 03:35:46;;;;;;;43.88;28.88;;;3.50;99.90;;;;;;5012617;28;20041;-72
2022/02/12 03:38:16;;;;;;;48.03;28.13;;;3.90;99.90;;;;;;5013006;28;20037;-73
2022/02/12 03:40:46;;;;;;;47.92;27.05;;;4.00;99.90;;;;;;5012794;28;20050;-74
2022/02/12 03:43:15;;;;;;;37.90;25.42;;;4.00;99.90;;;;;;5012779;28;20042;-72
2022/02/12 03:45:43;;;;;;;50.05;25.48;;;4.00;99.90;;;;;;5012549;28;20387;-72
2022/02/12 03:48:10;;;;;;;42.72;26.17;;;3.70;99.90;;;;;;5012636;28;20037;-74
2022/02/12 03:50:40;;;;;;;42.47;27.63;;;3.40;99.90;;;;;;5012537;28;20038;-72
2022/02/12 03:53:08;;;;;;;42.53;24.30;;;3.30;99.90;;;;;;5012722;28;20060;-71
2022/02/12 03:55:39;;;;;;;42.28;25.58;;;3.60;99.90;;;;;;5012374;28;20042;-72
2022/02/12 03:58:09;;;;;;;;;;;3.50;99.90;;;;;;5012774;28;20432;-73
2022/02/12 04:00:41;;;;;;;36.30;23.77;;;3.40;99.90;;;;;;5012494;28;19917;-73
2022/02/12 04:03:08;;;;;;;39.88;25.33;;;3.60;99.90;;;;;;5011464;28;20515;-74
2022/02/12 04:05:36;;;;;;;41.63;24.35;;;3.80;99.90;;;;;;5012652;28;20460;-74
2022/02/12 04:08:04;;;;;;;37.00;23.05;;;3.40;99.90;;;;;;5012224;28;20526;-71
2022/02/12 04:10:31;;;;;;;35.00;23.98;;;3.30;99.90;;;;;;5011932;28;20031;-71
2022/02/12 04:12:59;;;;;;;35.97;23.45;;;3.40;99.90;;;;;;5012288;28;20049;-74
2022/02/12 04:15:26;;;;;;;39.40;24.88;;;3.50;99.90;;;;;;5012225;28;20034;-72
2022/02/12 04:17:54;;;;;;;43.20;24.90;;;3.50;99.90;;;;;;5012057;28;20479;-72
2022/02/12 04:20:24;;;;;;;40.88;24.08;;;3.50;99.90;;;;;;5020913;28;20070;-72
2022/02/12 04:22:52;;;;;;;38.95;24.80;;;3.40;99.90;;;;;;5031810;28;20398;-71
2022/02/12 04:25:21;;;;;;;40.17;23.67;;;3.60;99.90;;;;;;5031424;28;20033;-72
2022/02/12 04:27:50;;;;;;;45.42;24.60;;;3.70;99.90;;;;;;5031853;28;20037;-72
2022/02/12 04:30:17;;;;;;;36.80;24.65;;;3.60;99.90;;;;;;5031745;28;20045;-74
2022/02/12 04:32:45;;;;;;;40.20;25.08;;;3.50;99.90;;;;;;5031601;28;20076;-74
2022/02/12 04:35:14;;;;;;;42.45;25.15;;;3.50;99.90;;;;;;5031897;28;20033;-72
2022/02/12 04:37:42;;;;;;;47.47;25.13;;;3.50;99.90;;;;;;5031624;28;20045;-72
2022/02/12 04:40:10;;;;;;;40.95;25.85;;;3.50;99.90;;;;;;5031146;28;20656;-71
2022/02/12 04:42:37;;;;;;;43.00;25.42;;;3.70;99.90;;;;;;5031415;28;20045;-72
2022/02/12 04:45:06;;;;;;;42.95;26.20;;;3.90;99.90;;;;;;5031308;28;20107;-72
2022/02/12 04:47:33;;;;;;;47.03;26.30;;;3.90;99.90;;;;;;5013210;28;20041;-69
2022/02/12 04:50:00;;;;;;;36.70;25.80;;;3.80;99.90;;;;;;5031498;28;20033;-70
2022/02/12 04:52:27;;;;;;;45.42;27.25;;;3.70;99.90;;;;;;5031080;28;20041;-72
2022/02/12 04:54:54;;;;;;;46.95;27.52;;;3.50;99.90;;;;;;5031195;28;20041;-73
2022/02/12 04:57:22;;;;;;;49.72;32.63;;;3.70;99.90;;;;;;5030955;28;20041;-72
2022/02/12 04:59:49;;;;;;;52.25;35.67;;;3.70;99.90;;;;;;5030169;28;20033;-72
2022/02/12 05:02:16;;;;;;;51.53;35.13;;;3.70;99.90;;;;;;5031006;28;20048;-72
2022/02/12 05:04:43;;;;;;;52.17;32.15;;;3.70;99.90;;;;;;5031100;28;20037;-73
2022/02/12 05:07:11;;;;;;;48.95;31.48;;;3.70;99.90;;;;;;5013192;28;20490;-73
2022/02/12 05:09:38;;;;;;;46.20;32.63;;;3.80;99.90;;;;;;5030735;28;20033;-73
2022/02/12 05:12:07;;;;;;;45.97;33.97;;;3.80;99.90;;;;;;5030914;28;20049;-72
2022/02/12 05:14:34;;;;;;;43.00;29.52;;;3.50;99.90;;;;;;5013048;28;20479;-73
2022/02/12 05:17:03;;;;;;;39.15;26.08;;;3.30;99.90;;;;;;5030751;28;20054;-71
2022/02/12 05:19:31;;;;;;;41.55;26.25;;;3.40;99.90;;;;;;5031098;28;20038;-73
2022/02/12 05:21:58;;;;;;;45.47;30.10;;;3.60;99.90;;;;;;4990388;28;20061;-72
2022/02/12 05:24:26;;;;;;;43.15;29.05;;;3.70;99.90;;;;;;4991358;28;20047;-72
2022/02/12 05:26:53;;;;;;;39.28;25.80;;;3.70;99.90;;;;;;4992033;28;20526;-74
2022/02/12 05:29:20;;;;;;;40.63;26.52;;;3.90;99.90;;;;;;4991446;28;20043;-72
2022/02/12 05:31:48;;;;;;;40.40;26.88;;;4.00;99.90;;;;;;4991556;28;20340;-74
2022/02/12 05:34:17;;;;;;;40.22;25.67;;;3.80;99.90;;;;;;4991707;28;20053;-72
2022/02/12 05:36:45;;;;;;;41.38;26.13;;;3.80;99.90;;;;;;4991556;28;20038;-70
2022/02/12 05:39:12;;;;;;;37.78;27.08;;;4.00;99.90;;;;;;4991233;28;20049;-72
2022/02/12 05:41:40;;;;;;;45.67;26.85;;;3.90;99.90;;;;;;4991576;28;20038;-74
2022/02/12 05:44:07;;;;;;;38.80;26.73;;;3.80;99.90;;;;;;4991409;28;20050;-71
2022/02/12 05:46:35;;;;;;;37.15;25.05;;;4.00;99.90;;;;;;4991640;28;20090;-72
2022/02/12 05:49:04;;;;;;;38.33;25.90;;;4.20;99.90;;;;;;4990980;28;20050;-70
2022/02/12 05:51:31;;;;;;;38.47;27.55;;;4.10;99.90;;;;;;4991325;28;20038;-72
2022/02/12 05:54:00;;;;;;;41.35;28.25;;;4.10;99.90;;;;;;4991070;28;20038;-72
2022/02/12 05:56:29;;;;;;;42.20;28.10;;;4.20;99.90;;;;;;4999017;28;20041;-70
2022/02/12 05:58:57;;;;;;;44.22;28.55;;;4.20;99.90;;;;;;5020595;28;20037;-72
2022/02/12 06:01:25;;;;;;;44.05;28.90;;;4.00;99.90;;;;;;5020947;28;20395;-71
2022/02/12 06:03:53;;;;;;;42.50;25.73;;;4.20;99.90;;;;;;5019192;28;20345;-73
2022/02/12 06:06:20;;;;;;;41.97;27.55;;;4.20;99.90;;;;;;5015560;28;20042;-71
2022/02/12 06:08:48;;;;;;;37.22;25.77;;;4.10;99.90;;;;;;5010498;28;20045;-70
2022/02/12 06:11:15;;;;;;;36.92;24.65;;;4.00;99.90;;;;;;5010944;28;20049;-71
2022/02/12 06:13:43;;;;;;;42.30;26.52;;;3.90;99.90;;;;;;5010576;28;20038;-71
2022/02/12 06:16:11;;;;;;;38.60;25.95;;;4.10;99.90;;;;;;5010627;28;20041;-70
2022/02/12 06:18:38;;;;;;;36.63;24.00;;;4.40;99.90;;;;;;5010736;28;20048;-73
2022/02/12 06:21:07;;;;;;;34.65;24.02;;;4.50;99.90;;;;;;5021782;28;20380;-73
2022/02/12 06:23:36;;;;;;;37.97;25.92;;;4.90;99.90;;;;;;5030065;28;20056;-74
2022/02/12 06:26:05;;;;;;;43.90;27.92;;;4.90;99.90;;;;;;5032316;28;20030;-74
2022/02/12 06:28:32;;;;;;;68.80;40.60;;;5.00;99.90;;;;;;5034102;28;20052;-70
2022/02/12 06:31:03;;;;;;;69.55;41.20;;;5.10;99.90;;;;;;5033784;28;20561;-71
2022/02/12 06:33:30;;;;;;;;;;;5.10;99.90;;;;;;5013846;28;20032;-71
2022/02/12 06:35:59;;;;;;;46.78;31.95;;;5.40;99.90;;;;;;5020916;28;19960;-72
2022/02/12 06:38:27;;;;;;;50.63;31.73;;;5.50;99.90;;;;;;5020076;28;20030;-73
2022/02/12 06:40:55;;;;;;;43.47;31.02;;;5.60;99.90;;;;;;5019732;28;20378;-73
2022/02/12 06:43:22;;;;;;;47.47;29.75;;;5.40;99.90;;;;;;5017625;28;20033;-73
2022/02/12 06:45:49;;;;;;;44.58;28.38;;;5.40;99.90;;;;;;5021794;28;20042;-72
2022/02/12 06:48:18;;;;;;;50.13;31.50;;;5.60;99.90;;;;;;5024879;28;20053;-71
2022/02/12 06:50:47;;;;;;;43.63;28.58;;;5.40;99.90;;;;;;5022678;28;20099;-71
2022/02/12 06:53:14;;;;;;;58.08;36.75;;;5.50;99.90;;;;;;5022090;28;20045;-73
2022/02/12 06:55:41;;;;;;;43.42;28.45;;;6.00;99.90;;;;;;5031588;28;20501;-74
2022/02/12 06:58:09;;;;;;;44.33;30.25;;;6.30;99.90;;;;;;5005327;28;20054;-72
2022/02/12 07:00:36;;;;;;;43.47;28.92;;;6.00;99.90;;;;;;4992565;28;20057;-72
2022/02/12 07:03:06;;;;;;;46.88;28.75;;;5.80;99.90;;;;;;5011570;28;20045;-74
2022/02/12 07:05:35;;;;;;;46.80;27.58;;;5.80;99.90;;;;;;5013367;28;20117;-74
2022/02/12 07:08:03;;;;;;;28.98;18.10;;;5.70;99.90;;;;;;5012871;28;20372;-73
2022/02/12 07:10:34;;;;;;;31.35;20.38;;;6.00;99.90;;;;;;5011388;28;20053;-71
2022/02/12 07:13:04;;;;;;;31.55;18.50;;;6.30;99.90;;;;;;5011534;28;20132;-72
2022/02/12 07:15:32;;;;;;;37.78;23.88;;;6.40;99.90;;;;;;5012861;28;20037;-72
2022/02/12 07:17:59;;;;;;;28.70;18.92;;;6.30;99.90;;;;;;5012607;28;20046;-73
2022/02/12 07:20:26;;;;;;;24.13;15.65;;;6.30;99.90;;;;;;5012470;28;20375;-71
2022/02/12 07:22:54;;;;;;;17.88;12.45;;;6.30;99.90;;;;;;5010750;28;20779;-73
2022/02/12 07:25:21;;;;;;;18.85;11.90;;;6.60;99.90;;;;;;5012567;28;20033;-73
2022/02/12 07:27:54;;;;;;;17.15;11.88;;;6.80;99.90;;;;;;5011416;28;20034;-73
2022/02/12 07:30:24;;;;;;;17.08;11.18;;;6.90;99.90;;;;;;5012801;28;20042;-73
2022/02/12 07:32:55;;;;;;;;;;;6.90;99.90;;;;;;5013535;28;20491;-72
2022/02/12 07:35:22;;;;;;;14.30;10.27;;;6.90;99.90;;;;;;5009901;28;20293;-74
2022/02/12 07:37:50;;;;;;;17.55;11.20;;;7.00;99.90;;;;;;5011809;28;20050;-74
2022/02/12 07:40:19;;;;;;;13.60;10.60;;;7.00;99.90;;;;;;5012739;28;20042;-75
2022/02/12 07:42:47;;;;;;;16.90;11.05;;;7.00;99.90;;;;;;5011876;28;20399;-74
2022/02/12 07:45:16;;;;;;;16.08;10.45;;;7.00;99.90;;;;;;4994052;28;20480;-76
2022/02/12 07:47:45;;;;;;;13.13;10.82;;;7.10;99.90;;;;;;5010491;28;20515;-74
2022/02/12 07:50:15;;;;;;;13.63;10.35;;;7.10;99.90;;;;;;5011920;28;20353;-74
2022/02/12 07:52:43;;;;;;;;;;;7.10;99.90;;;;;;5012778;28;20475;-74
2022/02/12 07:55:16;;;;;;;13.73;9.60;;;7.20;99.90;;;;;;5012208;28;19917;-74
2022/02/12 07:57:43;;;;;;;;;;;7.30;99.90;;;;;;5010065;28;20708;-74
2022/02/12 08:00:17;;;;;;;12.43;9.18;;;7.20;99.90;;;;;;5011112;28;19924;-73
2022/02/12 08:02:44;;;;;;;11.52;8.63;;;7.30;99.90;;;;;;5012383;28;20065;-72
2022/02/12 08:05:13;;;;;;;12.90;8.60;;;7.40;99.90;;;;;;5011367;28;20507;-74
2022/02/12 08:07:41;;;;;;;11.55;8.40;;;7.40;99.90;;;;;;4994467;28;20057;-74
2022/02/12 08:13:00;;;;;;;10.40;8.13;;;7.40;99.90;;;;;;4992455;28;20056;-75
2022/02/12 08:15:28;;;;;;;10.77;7.95;;;7.50;99.90;;;;;;4994777;28;20070;-75
2022/02/12 08:17:57;;;;;;;11.23;8.27;;;7.50;99.90;;;;;;4993842;28;20727;-74
2022/02/12 08:20:25;;;;;;;11.68;7.95;;;7.60;99.90;;;;;;5024469;28;20032;-76
2022/02/12 08:22:52;;;;;;;11.02;7.72;;;7.70;99.90;;;;;;5029217;28;20045;-75
2022/02/12 08:25:20;;;;;;;11.55;7.75;;;7.60;99.90;;;;;;5031064;28;20042;-77
2022/02/12 08:27:48;;;;;;;10.80;7.78;;;7.60;99.90;;;;;;4999764;28;20064;-75
2022/02/12 08:30:15;;;;;;;8.35;7.03;;;7.70;99.90;;;;;;5010584;28;20038;-73
2022/02/12 08:32:43;;;;;;;12.77;7.60;;;7.60;99.90;;;;;;5010889;28;20041;-76
2022/02/12 08:35:13;;;;;;;12.13;7.25;;;7.70;99.90;;;;;;5009628;28;20030;-77
2022/02/12 08:37:42;;;;;;;8.75;6.20;;;7.80;99.90;;;;;;4993710;28;20049;-75
2022/02/12 08:40:14;;;;;;;12.18;7.22;;;7.80;99.90;;;;;;5011097;28;20069;-74
2022/02/12 08:42:42;;;;;;;9.32;6.78;;;7.80;99.90;;;;;;5010112;28;20037;-74
2022/02/12 08:45:11;;;;;;;11.70;6.80;;;7.90;99.90;;;;;;5010086;28;20042;-73
2022/02/12 08:47:38;;;;;;;8.70;6.40;;;8.00;99.90;;;;;;5008728;28;20125;-71
2022/02/12 08:50:08;;;;;;;7.93;5.90;;;8.20;99.90;;;;;;5011356;28;20040;-74
2022/02/12 08:52:36;;;;;;;11.48;6.20;;;8.30;99.60;;;;;;5011503;28;20462;-74
2022/02/12 08:55:04;;;;;;;7.20;6.00;;;8.20;99.00;;;;;;5010916;28;20034;-73
2022/02/12 08:57:31;;;;;;;7.88;6.13;;;8.30;98.40;;;;;;5008463;28;20042;-72
2022/02/12 08:59:58;;;;;;;8.82;6.45;;;8.40;98.80;;;;;;5010552;28;20121;-73
2022/02/12 09:02:26;;;;;;;9.48;6.07;;;8.70;98.30;;;;;;5010941;28;20116;-75
2022/02/12 09:04:53;;;;;;;9.65;5.88;;;8.70;97.50;;;;;;4993670;28;20387;-72
2022/02/12 09:07:23;;;;;;;9.80;6.18;;;8.50;96.70;;;;;;5010409;28;20052;-71
2022/02/12 09:09:50;;;;;;;61.67;33.22;;;8.60;96.80;;;;;;5008224;28;20369;-70
2022/02/12 09:12:17;;;;;;;15.05;9.43;;;8.80;96.40;;;;;;5011309;28;20124;-74
2022/02/12 09:14:45;;;;;;;9.60;6.63;;;8.80;96.20;;;;;;4993522;28;20414;-72
2022/02/12 09:17:12;;;;;;;10.05;6.70;;;9.00;95.60;;;;;;5010689;28;20033;-71
2022/02/12 09:19:40;;;;;;;8.82;7.10;;;9.10;94.40;;;;;;4994175;28;20493;-71
2022/02/12 09:22:11;;;;;;;67.53;33.33;;;9.10;94.10;;;;;;5016131;28;20038;-72
2022/02/12 09:24:39;;;;;;;18.17;10.13;;;9.40;94.40;;;;;;5018601;28;20034;-74
2022/02/12 09:27:07;;;;;;;11.27;7.78;;;9.50;92.60;;;;;;5020564;28;20034;-71
2022/02/12 09:29:35;;;;;;;7.20;5.38;;;9.50;93.00;;;;;;5018773;28;20452;-73
2022/02/12 09:32:07;;;;;;;6.72;5.00;;;9.30;91.90;;;;;;5010263;28;20066;-74
2022/02/12 09:34:34;;;;;;;8.10;5.40;;;9.00;92.50;;;;;;5009729;28;20121;-72
2022/02/12 09:37:02;;;;;;;10.45;5.88;;;9.10;92.60;;;;;;5010973;28;20696;-72
2022/02/12 09:39:29;;;;;;;8.05;5.72;;;9.50;91.80;;;;;;5008693;28;20042;-74
2022/02/12 09:41:57;;;;;;;7.75;5.57;;;9.90;90.70;;;;;;5004954;28;20033;-77
2022/02/12 09:44:24;;;;;;;7.75;5.50;;;9.60;90.70;;;;;;5009375;28;20057;-75
2022/02/12 09:47:29;;;;;;;10.45;5.55;;;9.70;90.40;;;;;;5009692;28;20471;-74
2022/02/12 09:49:58;;;;;;;9.07;5.50;;;9.60;90.60;;;;;;5010492;28;20042;-72
2022/02/12 09:52:31;;;;;;;11.40;7.07;;;9.70;90.10;;;;;;5010950;28;20475;-73
2022/02/12 09:54:59;;;;;;;26.05;16.67;;;10.20;90.20;;;;;;5010453;28;20041;-71
2022/02/12 09:57:27;;;;;;;10.00;6.35;;;10.40;88.00;;;;;;5007201;28;20030;-75
2022/02/12 10:00:04;;;;;;;6.72;5.10;;;10.00;86.20;;;;;;5009870;28;20046;-73
2022/02/12 10:02:32;;;;;;;7.53;5.07;;;9.80;88.10;;;;;;5013806;28;20475;-74
2022/02/12 10:05:27;;;;;;;8.25;5.57;;;9.90;86.40;;;;;;5014478;28;20395;-74
2022/02/12 10:08:00;;;;;;;7.57;5.05;;;10.10;86.10;;;;;;4980076;28;20509;-73
2022/02/12 10:10:29;;;;;;;8.18;5.57;;;10.30;86.50;;;;;;5014226;28;20030;-73
2022/02/12 10:13:29;;;;;;;9.18;5.85;;;10.60;83.70;;;;;;5014358;28;20034;-72
2022/02/12 10:16:02;;;;;;;9.93;5.57;;;11.00;82.70;;;;;;5014109;28;20042;-72
2022/02/12 10:18:31;;;;;;;8.70;5.38;;;11.20;82.20;;;;;;5014331;28;20096;-75
2022/02/12 10:21:01;;;;;;;8.80;5.72;;;11.00;81.40;;;;;;5011229;28;20044;-73
2022/02/12 10:23:30;;;;;;;10.00;5.60;;;10.70;82.70;;;;;;5033819;28;20124;-73
2022/02/12 10:26:08;;;;;;;7.05;5.25;;;10.80;82.40;;;;;;5033038;28;20422;-75
2022/02/12 10:28:42;;;;;;;7.13;5.32;;;11.30;80.60;;;;;;5016534;28;20045;-74
2022/02/12 10:31:11;;;;;;;8.18;5.57;;;11.00;79.60;;;;;;5033740;28;20043;-76
2022/02/12 10:33:45;;;;;;;8.18;5.63;;;11.20;79.10;;;;;;5033452;28;20391;-73
2022/02/12 10:36:15;;;;;;;7.80;5.43;;;11.10;78.80;;;;;;5033719;28;20029;-77
2022/02/12 10:38:49;;;;;;;8.43;5.88;;;10.90;79.40;;;;;;5016361;28;20037;-73
2022/02/12 10:41:18;;;;;;;8.18;5.35;;;11.20;79.20;;;;;;5033651;28;20045;-75
2022/02/12 10:43:49;;;;;;;8.25;5.63;;;10.90;77.30;;;;;;5033584;28;20379;-72
2022/02/12 10:46:17;;;;;;;11.93;6.13;;;10.80;78.90;;;;;;5030289;28;20116;-74
2022/02/12 10:48:47;;;;;;;8.90;6.30;;;10.90;79.50;;;;;;5014273;28;20245;-77
2022/02/12 10:51:16;;;;;;;11.30;6.53;;;10.80;79.90;;;;;;5014560;28;20034;-75
2022/02/12 10:53:55;;;;;;;12.98;6.40;;;10.50;79.60;;;;;;5013638;28;20383;-77
2022/02/12 10:56:24;;;;;;;12.52;6.13;;;10.50;79.70;;;;;;5013772;28;20041;-74
2022/02/12 10:58:51;;;;;;;7.70;5.60;;;10.60;80.80;;;;;;5013743;28;20042;-72
2022/02/12 11:01:19;;;;;;;8.25;5.70;;;10.90;80.20;;;;;;5013499;28;20069;-72
2022/02/12 11:03:46;;;;;;;7.30;5.70;;;11.10;78.80;;;;;;5013842;28;20041;-72
2022/02/12 11:06:14;;;;;;;9.82;5.72;;;11.40;77.80;;;;;;5014052;28;20049;-74
2022/02/12 11:08:42;;;;;;;8.00;5.20;;;11.70;77.00;;;;;;5013822;28;20037;-72
2022/02/12 11:11:10;;;;;;;8.57;5.25;;;12.00;76.00;;;;;;5012899;28;20037;-74
2022/02/12 11:13:39;;;;;;;8.10;5.40;;;11.90;74.50;;;;;;5012640;28;20038;-73
2022/02/12 11:16:07;;;;;;;9.68;5.70;;;12.00;73.60;;;;;;5017839;28;20430;-75
2022/02/12 11:18:34;;;;;;;8.10;5.28;;;11.80;74.20;;;;;;5020132;28;20036;-75
2022/02/12 11:21:02;;;;;;;9.52;5.70;;;11.60;73.90;;;;;;5017289;28;20034;-74
2022/02/12 11:23:30;;;;;;;7.18;5.25;;;11.70;73.30;;;;;;5022439;28;20059;-76
2022/02/12 11:26:04;;;;;;;9.10;5.85;;;11.50;73.50;;;;;;5031330;28;20040;-76
2022/02/12 11:28:32;;;;;;;8.65;6.20;;;12.50;71.70;;;;;;5017651;28;20069;-76
2022/02/12 11:31:24;;;;;;;9.77;6.35;;;12.40;71.00;;;;;;4996050;28;20041;-76
2022/02/12 11:34:11;;;;;;;12.40;6.10;;;12.30;70.20;;;;;;5008531;28;20064;-76
2022/02/12 11:36:45;;;;;;;7.97;5.80;;;11.90;70.40;;;;;;5022078;28;20110;-75
2022/02/12 11:39:20;;;;;;;9.43;5.55;;;12.30;69.90;;;;;;5021646;28;20072;-74
2022/02/12 11:41:53;;;;;;;8.43;5.60;;;12.50;68.60;;;;;;5022718;28;20040;-72
2022/02/12 11:44:45;;;;;;;10.20;5.78;;;12.50;67.80;;;;;;5021835;28;20399;-76
2022/02/12 11:47:14;;;;;;;9.77;5.88;;;12.50;67.90;;;;;;4999940;28;20053;-74
2022/02/12 11:49:45;;;;;;;6.63;4.72;;;13.40;65.50;;;;;;5017033;28;20480;-73
2022/02/12 11:52:15;;;;;;;7.30;5.03;;;13.00;65.40;;;;;;5023024;28;20383;-76
2022/02/12 11:54:57;;;;;;;6.97;5.07;;;13.00;65.20;;;;;;5020933;28;20052;-75
2022/02/12 11:57:27;;;;;;;8.02;5.07;;;13.70;63.80;;;;;;5027521;28;20140;-76
2022/02/12 12:00:03;;;;;;;8.48;5.03;;;13.40;62.70;;;;;;5026350;28;20471;-75
2022/02/12 12:02:40;;;;;;;8.50;4.82;;;13.70;62.70;;;;;;5027372;28;20034;-76
2022/02/12 12:05:24;;;;;;;7.75;4.70;;;13.60;61.60;;;;;;5026678;28;20046;-76
2022/02/12 12:08:02;;;;;;;7.07;4.45;;;13.30;62.20;;;;;;5012473;28;20399;-77
2022/02/12 12:10:37;;;;;;;7.28;4.47;;;13.70;61.90;;;;;;5012506;28;20181;-76
2022/02/12 12:13:10;;;;;;;8.27;5.13;;;13.60;61.50;;;;;;5011963;28;20076;-74
2022/02/12 12:15:48;;;;;;;7.30;4.93;;;14.60;60.10;;;;;;5016821;28;20383;-72
2022/02/12 12:18:16;;;;;;;9.30;4.80;;;14.30;59.10;;;;;;5018158;28;20133;-76
2022/02/12 12:20:46;;;;;;;6.07;4.38;;;14.90;59.00;;;;;;5004282;28;20039;-76
2022/02/12 12:23:15;;;;;;;6.05;4.25;;;15.60;58.30;;;;;;5022837;28;20049;-74
2022/02/12 12:26:03;;;;;;;7.63;4.65;;;14.50;57.70;;;;;;5020761;28;20026;-74
2022/02/12 12:28:42;;;;;;;5.75;3.88;;;14.50;58.30;;;;;;5020542;28;20391;-74
2022/02/12 12:31:16;;;;;;;7.57;4.07;;;14.10;58.00;;;;;;5021267;28;20053;-72
2022/02/12 12:33:46;;;;;;;5.88;4.00;;;14.40;58.10;;;;;;5015913;28;20053;-76
2022/02/12 12:36:17;;;;;;;10.23;4.70;;;14.60;58.00;;;;;;5018290;28;20499;-74
2022/02/12 12:38:51;;;;;;;7.72;4.53;;;15.10;57.00;;;;;;5011313;28;20299;-74
2022/02/12 12:41:27;;;;;;;7.80;4.30;;;16.10;55.60;;;;;;5011779;28;20470;-73
2022/02/12 12:44:05;;;;;;;8.23;4.45;;;16.00;54.20;;;;;;5012498;28;20038;-73
2022/02/12 12:46:33;;;;;;;7.13;3.97;;;15.40;56.20;;;;;;5014487;28;20130;-74
2022/02/12 12:49:00;;;;;;;8.60;4.43;;;14.80;56.40;;;;;;4995357;28;20080;-73
2022/02/12 12:51:57;;;;;;;8.55;3.90;;;14.90;56.70;;;;;;5028438;28;20037;-73
2022/02/12 12:54:28;;;;;;;6.30;3.78;;;15.20;55.60;;;;;;5013786;28;20059;-76
2022/02/12 12:56:57;;;;;;;5.72;3.20;;;15.40;55.10;;;;;;5013662;28;20371;-74
2022/02/12 12:59:25;;;;;;;7.72;3.83;;;15.00;55.40;;;;;;5030686;28;20041;-74
2022/02/12 13:02:05;;;;;;;7.20;4.20;;;15.90;55.00;;;;;;5019155;28;20076;-77
2022/02/12 13:04:38;;;;;;;5.28;3.42;;;15.40;54.30;;;;;;5013262;28;20045;-72